createdAt,value
2022-08-20T00:02:10.836Z,23.20
2022-08-20T00:04:39.482Z,23.20
2022-08-20T00:07:07.810Z,23.20
2022-08-20T00:09:36.642Z,23.10
2022-08-20T00:12:06.641Z,23.10
2022-08-20T00:14:35.398Z,23.00
2022-08-20T00:17:04.794Z,22.90
2022-08-20T00:19:32.109Z,22.90
2022-08-20T00:21:59.428Z,22.90
2022-08-20T00:24:26.952Z,22.90
2022-08-20T00:26:54.275Z,23.10
2022-08-20T00:29:22.412Z,23.10
2022-08-20T00:31:51.119Z,23.10
2022-08-20T00:34:19.054Z,23.20
2022-08-20T00:36:47.046Z,23.20
2022-08-20T00:39:14.932Z,23.30
2022-08-20T00:41:42.262Z,23.30
2022-08-20T00:44:22.627Z,23.30
2022-08-20T00:46:51.186Z,23.30
2022-08-20T00:49:28.107Z,23.20
2022-08-20T00:52:15.856Z,23.10
2022-08-20T00:55:02.359Z,23.10
2022-08-20T00:57:54.782Z,23.10
2022-08-20T01:00:38.031Z,23.00
2022-08-20T01:03:09.994Z,23.00
2022-08-20T01:05:45.314Z,22.90
2022-08-20T01:08:14.834Z,22.90
2022-08-20T01:10:48.708Z,22.80
2022-08-20T01:13:24.096Z,22.70
2022-08-20T01:15:56.261Z,22.80
2022-08-20T01:18:27.536Z,22.80
2022-08-20T01:21:05.133Z,22.80
2022-08-20T01:24:02.228Z,22.70
2022-08-20T01:26:37.648Z,22.70
2022-08-20T01:29:27.451Z,22.70
2022-08-20T01:32:01.204Z,22.70
2022-08-20T01:34:29.480Z,22.60
2022-08-20T01:36:58.640Z,22.60
2022-08-20T01:39:36.496Z,22.50
2022-08-20T01:42:52.834Z,22.40
2022-08-20T01:45:43.669Z,22.40
2022-08-20T01:48:14.668Z,22.30
2022-08-20T01:50:53.807Z,22.30
2022-08-20T01:53:33.806Z,22.30
2022-08-20T01:56:09.522Z,22.30
2022-08-20T01:58:42.599Z,22.30
2022-08-20T02:01:26.489Z,22.20
2022-08-20T02:03:55.285Z,22.20
2022-08-20T02:06:27.051Z,22.10
2022-08-20T02:08:59.211Z,22.00
2022-08-20T02:11:30.015Z,22.00
2022-08-20T02:13:58.203Z,22.00
2022-08-20T02:16:35.432Z,22.00
2022-08-20T02:19:20.023Z,22.00
2022-08-20T02:21:55.464Z,22.00
2022-08-20T02:24:23.270Z,21.90
2022-08-20T02:26:52.786Z,21.90
2022-08-20T02:29:20.183Z,21.80
2022-08-20T02:32:25.155Z,21.80
2022-08-20T02:34:35.888Z,21.80
2022-08-20T02:37:06.362Z,21.70
2022-08-20T02:39:34.641Z,21.70
2022-08-20T02:42:03.948Z,21.60
2022-08-20T02:44:32.287Z,21.60
2022-08-20T02:47:01.004Z,21.60
2022-08-20T02:49:28.376Z,21.50
2022-08-20T02:51:55.680Z,21.50
2022-08-20T02:54:24.860Z,21.50
2022-08-20T02:56:52.291Z,21.50
2022-08-20T02:59:20.087Z,21.50
2022-08-20T03:01:55.843Z,21.50
2022-08-20T03:04:30.448Z,21.50
2022-08-20T03:06:59.400Z,21.40
2022-08-20T03:09:27.101Z,21.40
2022-08-20T03:11:54.457Z,21.40
2022-08-20T03:14:21.685Z,21.40
2022-08-20T03:16:49.473Z,21.40
2022-08-20T03:19:16.894Z,21.50
2022-08-20T03:21:44.260Z,21.40
2022-08-20T03:24:11.569Z,21.40
2022-08-20T03:26:38.927Z,21.50
2022-08-20T03:29:06.236Z,21.40
2022-08-20T03:31:34.017Z,21.40
2022-08-20T03:34:01.391Z,21.40
2022-08-20T03:36:29.482Z,21.40
2022-08-20T03:39:01.279Z,21.40
2022-08-20T03:41:29.164Z,21.40
2022-08-20T03:43:56.548Z,21.40
2022-08-20T03:46:25.050Z,21.40
2022-08-20T03:48:59.586Z,21.40
2022-08-20T03:51:30.463Z,21.30
2022-08-20T03:53:58.905Z,21.30
2022-08-20T03:56:27.513Z,21.30
2022-08-20T03:58:55.997Z,21.30
2022-08-20T04:01:44.219Z,21.30
2022-08-20T04:04:12.184Z,21.40
2022-08-20T04:06:41.407Z,21.30
2022-08-20T04:09:12.270Z,21.40
2022-08-20T04:11:42.225Z,21.30
2022-08-20T04:14:12.028Z,21.30
2022-08-20T04:16:45.686Z,21.40
2022-08-20T04:19:16.566Z,21.40
2022-08-20T04:21:43.973Z,21.50
2022-08-20T04:24:26.746Z,21.50
2022-08-20T04:26:58.923Z,21.50
2022-08-20T04:29:32.003Z,21.50
2022-08-20T04:32:03.388Z,21.50
2022-08-20T04:34:34.438Z,21.50
2022-08-20T04:37:03.790Z,21.60
2022-08-20T04:39:31.392Z,21.60
2022-08-20T04:41:59.350Z,21.60
2022-08-20T04:44:27.570Z,21.60
2022-08-20T04:46:55.256Z,21.70
2022-08-20T04:49:25.359Z,21.80
2022-08-20T04:51:54.711Z,21.80
2022-08-20T04:54:22.284Z,21.80
2022-08-20T04:56:49.566Z,21.80
2022-08-20T04:59:16.922Z,21.90
2022-08-20T05:01:44.222Z,21.90
2022-08-20T05:04:12.060Z,21.80
2022-08-20T05:06:41.562Z,21.90
2022-08-20T05:09:08.846Z,21.90
2022-08-20T05:11:37.043Z,21.90
2022-08-20T05:14:09.487Z,21.90
2022-08-20T05:16:41.119Z,22.00
2022-08-20T05:19:12.219Z,22.00
2022-08-20T05:21:40.112Z,22.10
2022-08-20T05:24:12.134Z,22.20
2022-08-20T05:26:42.357Z,22.20
2022-08-20T05:29:09.657Z,22.20
2022-08-20T05:31:38.528Z,22.20
2022-08-20T05:34:13.495Z,22.30
2022-08-20T05:36:51.799Z,22.40
2022-08-20T05:39:23.357Z,22.60
2022-08-20T05:41:52.351Z,22.70
2022-08-20T05:44:20.068Z,22.90
2022-08-20T05:46:48.471Z,23.10
2022-08-20T05:49:22.459Z,23.30
2022-08-20T05:51:53.789Z,23.50
2022-08-20T05:54:22.416Z,23.60
2022-08-20T05:56:50.814Z,23.70
2022-08-20T05:59:22.210Z,23.90
2022-08-20T06:01:52.541Z,23.90
2022-08-20T06:04:28.080Z,23.90
2022-08-20T06:07:05.850Z,23.90
2022-08-20T06:09:37.303Z,23.90
2022-08-20T06:12:09.018Z,24.00
2022-08-20T06:14:36.792Z,24.00
2022-08-20T06:17:13.301Z,24.10
2022-08-20T06:19:44.123Z,24.10
2022-08-20T06:22:18.836Z,24.10
2022-08-20T06:24:53.345Z,24.10
2022-08-20T06:27:21.815Z,24.00
2022-08-20T06:29:50.157Z,24.00
2022-08-20T06:32:27.838Z,24.00
2022-08-20T06:35:09.311Z,24.00
2022-08-20T06:37:40.213Z,24.10
2022-08-20T06:40:22.383Z,24.00
2022-08-20T06:42:51.242Z,24.00
2022-08-20T06:45:24.667Z,24.00
2022-08-20T06:47:56.179Z,24.10
2022-08-20T06:50:43.128Z,24.10
2022-08-20T06:53:20.941Z,24.20
2022-08-20T06:55:56.958Z,24.20
2022-08-20T06:58:36.563Z,24.20
2022-08-20T07:01:09.364Z,24.30
2022-08-20T07:03:55.307Z,24.40
2022-08-20T07:06:27.025Z,24.40
2022-08-20T07:08:55.874Z,24.60
2022-08-20T07:11:28.194Z,24.50
2022-08-20T07:13:59.491Z,24.30
2022-08-20T07:16:27.625Z,24.10
2022-08-20T07:18:55.177Z,24.00
2022-08-20T07:21:22.997Z,23.90
2022-08-20T07:23:50.633Z,23.90
2022-08-20T07:26:20.086Z,23.90
2022-08-20T07:28:47.676Z,24.00
2022-08-20T07:31:34.929Z,24.20
2022-08-20T07:34:03.495Z,24.30
2022-08-20T07:36:31.210Z,24.50
2022-08-20T07:38:58.862Z,24.60
2022-08-20T07:41:26.068Z,24.70
2022-08-20T07:43:53.318Z,24.70
2022-08-20T07:46:21.748Z,24.70
2022-08-20T07:48:51.641Z,24.80
2022-08-20T07:51:22.490Z,24.90
2022-08-20T07:53:52.066Z,24.90
2022-08-20T07:56:24.277Z,24.90
2022-08-20T07:58:55.609Z,25.00
2022-08-20T08:01:28.726Z,25.20
2022-08-20T08:03:57.699Z,25.30
2022-08-20T08:06:29.347Z,25.30
2022-08-20T08:09:24.326Z,25.40
2022-08-20T08:11:51.896Z,25.40
2022-08-20T08:14:27.441Z,25.50
2022-08-20T08:17:02.990Z,25.50
2022-08-20T08:19:38.330Z,25.50
2022-08-20T08:22:14.367Z,25.60
2022-08-20T08:24:56.635Z,25.60
2022-08-20T08:27:25.969Z,25.60
2022-08-20T08:29:53.220Z,25.70
2022-08-20T08:32:20.458Z,25.60
2022-08-20T08:34:48.360Z,25.70
2022-08-20T08:37:15.588Z,25.80
2022-08-20T08:39:42.930Z,25.90
2022-08-20T08:42:58.176Z,26.00
2022-08-20T08:45:45.768Z,26.00
2022-08-20T08:48:18.701Z,26.00
2022-08-20T08:50:54.773Z,26.20
2022-08-20T08:53:30.895Z,26.30
2022-08-20T08:55:59.631Z,26.30
2022-08-20T08:58:30.568Z,26.50
2022-08-20T09:01:02.120Z,26.60
2022-08-20T09:03:38.138Z,26.80
2022-08-20T09:06:06.371Z,26.90
2022-08-20T09:08:53.086Z,27.00
2022-08-20T09:11:23.436Z,27.00
2022-08-20T09:13:54.377Z,27.10
2022-08-20T09:16:23.143Z,27.30
2022-08-20T09:18:50.872Z,27.40
2022-08-20T09:21:19.886Z,27.40
2022-08-20T09:23:48.009Z,27.40
2022-08-20T09:26:15.247Z,27.30
2022-08-20T09:28:52.101Z,27.40
2022-08-20T09:31:24.276Z,27.40
2022-08-20T09:33:52.458Z,27.40
2022-08-20T09:36:28.797Z,27.40
2022-08-20T09:39:02.644Z,27.30
2022-08-20T09:41:33.859Z,27.20
2022-08-20T09:44:02.501Z,27.20
2022-08-20T09:46:30.750Z,27.10
2022-08-20T09:48:57.977Z,27.10
2022-08-20T09:51:25.170Z,27.10
2022-08-20T09:53:52.990Z,27.20
2022-08-20T09:56:20.227Z,27.30
2022-08-20T09:58:53.053Z,27.30
2022-08-20T10:01:22.575Z,27.20
2022-08-20T10:03:50.073Z,27.20
2022-08-20T10:06:20.183Z,27.30
2022-08-20T10:08:48.631Z,27.20
2022-08-20T10:11:16.389Z,27.10
2022-08-20T10:13:45.815Z,27.20
2022-08-20T10:16:13.720Z,27.30
2022-08-20T10:18:40.958Z,27.30
2022-08-20T10:21:11.063Z,27.20
2022-08-20T10:23:38.348Z,27.30
2022-08-20T10:26:07.731Z,27.30
2022-08-20T10:28:35.575Z,27.40
2022-08-20T10:31:04.740Z,27.70
2022-08-20T10:33:31.880Z,27.70
2022-08-20T10:36:13.567Z,27.80
2022-08-20T10:38:42.063Z,27.80
2022-08-20T10:41:10.002Z,28.00
2022-08-20T10:43:39.717Z,28.00
2022-08-20T10:46:07.130Z,28.20
2022-08-20T10:48:34.460Z,28.40
2022-08-20T10:51:01.701Z,28.30
2022-08-20T10:53:28.991Z,28.20
2022-08-20T10:55:57.866Z,28.40
2022-08-20T10:58:26.588Z,28.30
2022-08-20T11:01:05.050Z,28.30
2022-08-20T11:03:32.293Z,28.50
2022-08-20T11:05:59.592Z,28.60
2022-08-20T11:08:33.656Z,28.60
2022-08-20T11:11:05.590Z,28.60
2022-08-20T11:13:34.115Z,28.60
2022-08-20T11:16:21.181Z,28.70
2022-08-20T11:19:08.001Z,28.60
2022-08-20T11:21:35.607Z,28.50
2022-08-20T11:24:04.501Z,28.50
2022-08-20T11:26:33.239Z,28.40
2022-08-20T11:29:00.640Z,28.30
2022-08-20T11:31:27.946Z,28.20
2022-08-20T11:33:55.114Z,28.20
2022-08-20T11:36:26.476Z,28.00
2022-08-20T11:38:55.919Z,27.90
2022-08-20T11:41:23.457Z,27.80
2022-08-20T11:44:17.489Z,27.80
2022-08-20T11:46:39.310Z,27.70
2022-08-20T11:49:06.690Z,27.60
2022-08-20T11:51:48.909Z,27.60
2022-08-20T11:54:17.829Z,27.70
2022-08-20T11:56:51.143Z,27.70
2022-08-20T11:59:25.894Z,27.70
2022-08-20T12:02:03.327Z,27.80
2022-08-20T12:04:33.583Z,27.70
2022-08-20T12:07:19.832Z,27.80
2022-08-20T12:09:50.681Z,27.80
2022-08-20T12:12:25.319Z,27.80
2022-08-20T12:14:56.738Z,27.90
2022-08-20T12:17:32.971Z,27.90
2022-08-20T12:20:04.301Z,28.00
2022-08-20T12:22:31.758Z,28.10
2022-08-20T12:24:59.121Z,28.30
2022-08-20T12:27:32.141Z,28.40
2022-08-20T12:30:04.777Z,28.50
2022-08-20T12:32:32.881Z,28.50
2022-08-20T12:35:04.759Z,28.60
2022-08-20T12:37:34.569Z,28.60
2022-08-20T12:40:05.400Z,28.60
2022-08-20T12:42:32.723Z,28.60
2022-08-20T12:45:00.588Z,28.70
2022-08-20T12:47:32.030Z,28.70
2022-08-20T12:50:15.146Z,28.80
2022-08-20T12:52:44.379Z,28.80
2022-08-20T12:55:14.160Z,28.90
2022-08-20T12:57:47.149Z,28.80
2022-08-20T13:00:26.638Z,28.90
2022-08-20T13:02:57.040Z,28.90
2022-08-20T13:05:25.082Z,29.00
2022-08-20T13:07:53.689Z,28.90
2022-08-20T13:10:35.210Z,28.80
2022-08-20T13:13:03.092Z,28.70
2022-08-20T13:15:31.694Z,28.60
2022-08-20T13:18:01.851Z,28.70
2022-08-20T13:20:34.284Z,28.60
2022-08-20T13:23:06.249Z,28.70
2022-08-20T13:25:34.371Z,28.70
2022-08-20T13:28:04.506Z,28.80
2022-08-20T13:30:35.490Z,28.80
2022-08-20T13:33:03.478Z,28.70
2022-08-20T13:35:31.499Z,28.70
2022-08-20T13:37:58.654Z,28.70
2022-08-20T13:40:26.350Z,28.50
2022-08-20T13:42:54.823Z,28.50
2022-08-20T13:45:22.310Z,28.50
2022-08-20T13:47:54.486Z,28.40
2022-08-20T13:50:23.984Z,28.30
2022-08-20T13:52:52.005Z,28.30
2022-08-20T13:55:22.289Z,28.20
2022-08-20T13:57:50.927Z,28.20
2022-08-20T14:00:31.887Z,28.10
2022-08-20T14:03:01.331Z,28.10
2022-08-20T14:05:30.284Z,28.00
2022-08-20T14:08:06.122Z,27.90
2022-08-20T14:10:34.931Z,27.70
2022-08-20T14:13:05.708Z,27.60
2022-08-20T14:15:34.766Z,27.50
2022-08-20T14:18:02.050Z,27.50
2022-08-20T14:20:32.744Z,27.50
2022-08-20T14:23:01.255Z,27.40
2022-08-20T14:25:31.553Z,27.30
2022-08-20T14:28:10.406Z,27.30
2022-08-20T14:30:37.537Z,27.30
2022-08-20T14:33:04.740Z,27.40
2022-08-20T14:35:31.982Z,27.20
2022-08-20T14:38:01.865Z,27.10
2022-08-20T14:40:35.164Z,26.90
2022-08-20T14:43:02.359Z,26.90
2022-08-20T14:45:29.487Z,26.70
2022-08-20T14:47:58.005Z,26.70
2022-08-20T14:50:31.949Z,26.60
2022-08-20T14:53:00.487Z,26.50
2022-08-20T14:55:31.782Z,26.50
2022-08-20T14:57:59.144Z,26.50
2022-08-20T15:00:30.632Z,26.50
2022-08-20T15:02:58.450Z,26.40
2022-08-20T15:05:26.063Z,26.40
2022-08-20T15:07:56.454Z,26.30
2022-08-20T15:10:30.620Z,26.30
2022-08-20T15:12:59.051Z,26.20
2022-08-20T15:15:27.161Z,26.20
2022-08-20T15:18:00.341Z,26.10
2022-08-20T15:20:31.175Z,25.90
2022-08-20T15:23:00.283Z,25.80
2022-08-20T15:25:37.071Z,25.80
2022-08-20T15:28:06.801Z,25.80
2022-08-20T15:30:34.342Z,25.70
2022-08-20T15:33:02.011Z,25.60
2022-08-20T15:35:29.586Z,25.60
2022-08-20T15:37:59.007Z,25.60
2022-08-20T15:40:29.963Z,25.60
2022-08-20T15:42:58.990Z,25.50
2022-08-20T15:45:27.183Z,25.40
2022-08-20T15:48:11.815Z,25.40
2022-08-20T15:51:16.606Z,25.40
2022-08-20T15:54:00.576Z,25.40
2022-08-20T15:56:54.044Z,25.40
2022-08-20T15:59:49.635Z,25.30
2022-08-20T16:02:35.509Z,25.30
2022-08-20T16:05:19.773Z,25.10
2022-08-20T16:07:53.884Z,25.10
2022-08-20T16:10:47.080Z,24.90
2022-08-20T16:13:35.040Z,24.80
2022-08-20T16:16:03.391Z,24.60
2022-08-20T16:18:37.514Z,24.50
2022-08-20T16:21:15.419Z,24.40
2022-08-20T16:23:44.422Z,24.30
2022-08-20T16:26:32.961Z,24.10
2022-08-20T16:29:17.334Z,24.10
2022-08-20T16:32:01.496Z,24.00
2022-08-20T16:34:34.732Z,23.90
2022-08-20T16:37:27.955Z,23.80
2022-08-20T16:40:18.411Z,23.70
2022-08-20T16:42:51.195Z,23.70
2022-08-20T16:45:26.005Z,23.60
2022-08-20T16:47:57.232Z,23.60
2022-08-20T16:50:44.683Z,23.60
2022-08-20T16:53:19.627Z,23.60
2022-08-20T16:55:47.331Z,23.50
2022-08-20T16:58:15.603Z,23.50
2022-08-20T17:00:46.776Z,23.50
2022-08-20T17:03:39.415Z,23.30
2022-08-20T17:06:20.217Z,23.30
2022-08-20T17:08:50.047Z,23.30
2022-08-20T17:11:25.202Z,23.30
2022-08-20T17:14:08.128Z,23.10
2022-08-20T17:16:41.216Z,23.10
2022-08-20T17:19:17.278Z,23.00
2022-08-20T17:21:45.269Z,23.00
2022-08-20T17:24:25.670Z,22.90
2022-08-20T17:27:03.439Z,22.90
2022-08-20T17:29:34.547Z,22.80
2022-08-20T17:32:27.720Z,22.70
2022-08-20T17:35:00.885Z,22.60
2022-08-20T17:37:34.542Z,22.50
2022-08-20T17:40:27.213Z,22.40
2022-08-20T17:42:59.384Z,22.40
2022-08-20T17:45:32.029Z,22.30
2022-08-20T17:48:01.070Z,22.30
2022-08-20T17:50:40.134Z,22.30
2022-08-20T17:53:24.749Z,22.30
2022-08-20T17:56:17.269Z,22.30
2022-08-20T17:58:55.459Z,22.30
2022-08-20T18:01:25.912Z,22.30
2022-08-20T18:03:53.617Z,22.30
2022-08-20T18:06:30.484Z,22.30
2022-08-20T18:09:04.399Z,22.30
2022-08-20T18:11:46.664Z,22.40
2022-08-20T18:14:26.032Z,22.30
2022-08-20T18:16:59.168Z,22.30
2022-08-20T18:19:35.131Z,22.30
2022-08-20T18:22:09.788Z,22.20
2022-08-20T18:24:45.211Z,22.20
2022-08-20T18:27:17.952Z,22.30
2022-08-20T18:29:54.764Z,22.30
2022-08-20T18:32:36.646Z,22.30
2022-08-20T18:35:12.341Z,22.30
2022-08-20T18:37:40.102Z,22.30
2022-08-20T18:40:15.827Z,22.20
2022-08-20T18:42:43.461Z,22.20
2022-08-20T18:45:10.923Z,22.20
2022-08-20T18:47:46.198Z,22.20
2022-08-20T18:50:30.477Z,22.20
2022-08-20T18:53:17.407Z,22.10
2022-08-20T18:55:47.463Z,22.10
2022-08-20T18:58:29.689Z,22.10
2022-08-20T19:01:03.868Z,22.10
2022-08-20T19:03:35.939Z,22.10
2022-08-20T19:06:06.397Z,22.10
2022-08-20T19:08:51.219Z,22.10
2022-08-20T19:12:00.198Z,22.00
2022-08-20T19:14:42.592Z,22.00
2022-08-20T19:17:15.488Z,22.00
2022-08-20T19:19:42.827Z,21.90
2022-08-20T19:22:20.287Z,21.90
2022-08-20T19:24:53.782Z,21.90
2022-08-20T19:27:27.790Z,21.80
2022-08-20T19:29:57.110Z,21.80
2022-08-20T19:32:27.931Z,21.80
2022-08-20T19:34:58.524Z,21.80
2022-08-20T19:37:50.578Z,21.80
2022-08-20T19:40:28.531Z,21.80
2022-08-20T19:43:02.654Z,21.70
2022-08-20T19:45:40.775Z,21.70
2022-08-20T19:48:18.059Z,21.60
2022-08-20T19:51:19.045Z,21.50
2022-08-20T19:53:48.520Z,21.50
2022-08-20T19:56:28.842Z,21.40
2022-08-20T19:59:05.277Z,21.40
2022-08-20T20:01:33.729Z,21.30
2022-08-20T20:04:05.446Z,21.30
2022-08-20T20:06:41.692Z,21.20
2022-08-20T20:09:22.284Z,21.20
2022-08-20T20:11:53.755Z,21.20
2022-08-20T20:14:29.354Z,21.10
2022-08-20T20:16:57.768Z,21.20
2022-08-20T20:19:28.642Z,21.20
2022-08-20T20:22:19.333Z,21.10
2022-08-20T20:25:04.849Z,21.10
2022-08-20T20:27:33.856Z,21.10
2022-08-20T20:30:15.082Z,21.10
2022-08-20T20:32:49.262Z,21.00
2022-08-20T20:35:34.686Z,20.90
2022-08-20T20:38:08.937Z,20.90
2022-08-20T20:40:53.385Z,20.90
2022-08-20T20:43:34.855Z,20.90
2022-08-20T20:46:07.120Z,20.80
2022-08-20T20:48:48.714Z,20.80
2022-08-20T20:51:28.614Z,20.80
2022-08-20T20:54:00.483Z,20.80
2022-08-20T20:56:37.748Z,20.80
2022-08-20T20:59:07.451Z,20.70
2022-08-20T21:01:57.922Z,20.70
2022-08-20T21:04:25.681Z,20.70
2022-08-20T21:06:57.210Z,20.70
2022-08-20T21:09:26.138Z,20.70
2022-08-20T21:11:53.354Z,20.70
2022-08-20T21:14:21.057Z,20.70
2022-08-20T21:16:48.230Z,20.70
2022-08-20T21:19:16.089Z,20.70
2022-08-20T21:21:44.104Z,20.70
2022-08-20T21:24:12.683Z,20.70
2022-08-20T21:26:41.159Z,20.60
2022-08-20T21:29:11.285Z,20.60
2022-08-20T21:31:43.759Z,20.60
2022-08-20T21:34:15.618Z,20.60
2022-08-20T21:36:43.283Z,20.60
2022-08-20T21:39:11.668Z,20.60
2022-08-20T21:41:42.589Z,20.60
2022-08-20T21:44:14.260Z,20.50
2022-08-20T21:46:43.867Z,20.50
2022-08-20T21:49:11.279Z,20.50
2022-08-20T21:51:38.525Z,20.50
2022-08-20T21:54:05.975Z,20.50
2022-08-20T21:56:34.039Z,20.50
2022-08-20T21:59:06.952Z,20.50
2022-08-20T22:01:35.720Z,20.60
2022-08-20T22:04:03.355Z,20.50
2022-08-20T22:06:31.341Z,20.60
2022-08-20T22:08:58.683Z,20.50
2022-08-20T22:11:26.953Z,20.50
2022-08-20T22:13:55.484Z,20.60
2022-08-20T22:16:28.535Z,20.60
2022-08-20T22:18:57.118Z,20.60
2022-08-20T22:21:29.842Z,20.50
2022-08-20T22:24:03.717Z,20.50
2022-08-20T22:26:33.752Z,20.50
2022-08-20T22:29:04.701Z,20.50
2022-08-20T22:31:40.633Z,20.50
2022-08-20T22:34:09.686Z,20.50
2022-08-20T22:36:45.912Z,20.60
2022-08-20T22:39:20.692Z,20.60
2022-08-20T22:41:48.770Z,20.50
2022-08-20T22:44:16.077Z,20.50
2022-08-20T22:46:48.783Z,20.50
2022-08-20T22:49:22.593Z,20.50
2022-08-20T22:51:52.881Z,20.60
2022-08-20T22:54:25.412Z,20.50
2022-08-20T22:56:53.984Z,20.50
2022-08-20T22:59:22.063Z,20.50
2022-08-20T23:01:55.527Z,20.50
2022-08-20T23:04:31.930Z,20.50
2022-08-20T23:07:01.549Z,20.50
2022-08-20T23:09:30.258Z,20.50
2022-08-20T23:11:57.787Z,20.50
2022-08-20T23:14:26.999Z,20.50
2022-08-20T23:17:12.665Z,20.50
2022-08-20T23:19:44.344Z,20.50
2022-08-20T23:22:12.224Z,20.50
2022-08-20T23:24:40.606Z,20.50
2022-08-20T23:27:10.248Z,20.40
2022-08-20T23:29:41.861Z,20.40
2022-08-20T23:32:13.674Z,20.40
2022-08-20T23:34:43.554Z,20.40
2022-08-20T23:37:11.664Z,20.30
2022-08-20T23:39:41.614Z,20.30
2022-08-20T23:42:11.314Z,20.20
2022-08-20T23:44:41.358Z,20.10
2022-08-20T23:47:10.595Z,20.10
2022-08-20T23:49:37.892Z,20.10
2022-08-20T23:52:08.425Z,20.00
2022-08-20T23:54:35.887Z,20.00
2022-08-20T23:57:08.310Z,20.00
2022-08-20T23:59:39.424Z,20.00
